createdAt,value
2023-04-07T00:02:14.877Z,60175.97
2023-04-07T00:04:42.801Z,60175.97
2023-04-07T00:07:10.842Z,60175.97
2023-04-07T00:09:38.582Z,60175.97
2023-04-07T00:12:07.121Z,60175.97
2023-04-07T00:14:34.891Z,60175.97
2023-04-07T00:17:02.643Z,60175.97
2023-04-07T00:19:33.454Z,60175.97
2023-04-07T00:22:01.481Z,60175.97
2023-04-07T00:24:34.356Z,60175.97
2023-04-07T00:27:03.022Z,60175.97
2023-04-07T00:29:31.042Z,60175.97
2023-04-07T00:31:58.802Z,60175.97
2023-04-07T00:34:26.549Z,60175.97
2023-04-07T00:36:55.755Z,60175.97
2023-04-07T00:39:23.568Z,60175.97
2023-04-07T00:41:51.639Z,60175.97
2023-04-07T00:44:19.359Z,60175.97
2023-04-07T00:46:48.834Z,60175.97
2023-04-07T00:49:17.902Z,60175.97
2023-04-07T00:51:47.018Z,60175.97
2023-04-07T00:54:16.327Z,60175.97
2023-04-07T00:56:44.132Z,60175.97
2023-04-07T00:59:11.994Z,60175.97
2023-04-07T01:01:47.496Z,60175.97
2023-04-07T01:04:23.843Z,60175.97
2023-04-07T01:06:55.598Z,60175.97
2023-04-07T01:09:31.495Z,60175.97
2023-04-07T01:12:06.885Z,60175.97
2023-04-07T01:14:41.030Z,60175.97
2023-04-07T01:17:11.621Z,60175.97
2023-04-07T01:19:44.379Z,60175.97
2023-04-07T01:22:15.444Z,60175.97
2023-04-07T01:25:19.318Z,60175.97
2023-04-07T01:28:02.182Z,60175.97
2023-04-07T01:30:34.300Z,60175.97
2023-04-07T01:33:03.594Z,60175.97
2023-04-07T01:35:34.589Z,60175.97
2023-04-07T01:38:03.397Z,60175.97
2023-04-07T01:40:31.891Z,60175.97
2023-04-07T01:43:01.193Z,60175.97
2023-04-07T01:45:31.790Z,60175.97
2023-04-07T01:48:01.069Z,60175.97
2023-04-07T01:50:30.938Z,60175.97
2023-04-07T01:52:59.086Z,60175.97
2023-04-07T01:55:27.234Z,60175.97
2023-04-07T01:57:55.418Z,60175.97
2023-04-07T02:00:23.348Z,60175.97
2023-04-07T02:03:00.617Z,60175.97
2023-04-07T02:05:31.165Z,60175.97
2023-04-07T02:08:02.411Z,60175.97
2023-04-07T02:10:34.184Z,60175.97
2023-04-07T02:13:05.089Z,60175.97
2023-04-07T02:15:33.229Z,60175.97
2023-04-07T02:18:05.022Z,60175.97
2023-04-07T02:20:33.068Z,60175.97
2023-04-07T02:23:00.823Z,60175.97
2023-04-07T02:25:31.124Z,60175.97
2023-04-07T02:28:00.569Z,60175.97
2023-04-07T02:30:29.024Z,60175.97
2023-04-07T02:32:57.121Z,60175.97
2023-04-07T02:35:26.312Z,60175.97
2023-04-07T02:37:54.090Z,60175.97
2023-04-07T02:40:21.908Z,60175.97
2023-04-07T02:42:49.790Z,60175.97
2023-04-07T02:45:17.600Z,60175.97
2023-04-07T02:47:45.547Z,60175.97
2023-04-07T02:50:13.388Z,60175.97
2023-04-07T02:52:42.530Z,60175.97
2023-04-07T02:55:11.254Z,60175.97
2023-04-07T02:57:39.027Z,60175.97
2023-04-07T03:00:08.303Z,60175.97
2023-04-07T03:02:36.411Z,60175.97
2023-04-07T03:05:05.062Z,60175.97
2023-04-07T03:07:32.852Z,60175.97
2023-04-07T03:10:02.021Z,60175.97
2023-04-07T03:12:29.904Z,60175.97
2023-04-07T03:14:57.623Z,60175.97
2023-04-07T03:17:25.496Z,60175.97
2023-04-07T03:19:53.242Z,60175.97
2023-04-07T03:22:20.977Z,60175.97
2023-04-07T03:24:48.852Z,60175.97
2023-04-07T03:27:18.436Z,60175.97
2023-04-07T03:29:46.833Z,60175.97
2023-04-07T03:32:14.683Z,60175.97
2023-04-07T03:34:42.377Z,60175.97
2023-04-07T03:37:10.406Z,60175.97
2023-04-07T03:39:39.357Z,60175.97
2023-04-07T03:42:07.226Z,60175.97
2023-04-07T03:44:36.325Z,60175.97
2023-04-07T03:47:04.097Z,60175.97
2023-04-07T03:49:32.556Z,60175.97
2023-04-07T03:52:00.280Z,60175.97
2023-04-07T03:54:28.380Z,60175.97
2023-04-07T03:56:56.842Z,60175.97
2023-04-07T03:59:24.769Z,60175.97
2023-04-07T04:01:53.906Z,60175.97
2023-04-07T04:04:21.844Z,60175.97
2023-04-07T04:06:49.986Z,60175.97
2023-04-07T04:09:17.766Z,60175.97
2023-04-07T04:11:45.789Z,60175.97
2023-04-07T04:14:15.839Z,60175.97
2023-04-07T04:16:43.636Z,60175.97
2023-04-07T04:19:13.360Z,60175.97
2023-04-07T04:21:41.218Z,60175.97
2023-04-07T04:24:09.399Z,60175.97
2023-04-07T04:26:37.179Z,60175.97
2023-04-07T04:29:04.937Z,60175.97
2023-04-07T04:31:32.920Z,60175.97
2023-04-07T04:34:00.668Z,60175.97
2023-04-07T04:36:29.738Z,60175.97
2023-04-07T04:38:57.491Z,60175.97
2023-04-07T04:41:25.282Z,60175.97
2023-04-07T04:43:53.035Z,60175.97
2023-04-07T04:46:20.924Z,60175.97
2023-04-07T04:48:48.671Z,60175.97
2023-04-07T04:51:16.465Z,60175.97
2023-04-07T04:53:46.169Z,60175.97
2023-04-07T04:56:13.984Z,60175.97
2023-04-07T04:58:45.977Z,60175.97
2023-04-07T05:01:14.011Z,60175.97
2023-04-07T05:03:42.236Z,60175.97
2023-04-07T05:06:10.193Z,60175.97
2023-04-07T05:08:37.977Z,60175.97
2023-04-07T05:11:07.144Z,60175.97
2023-04-07T05:13:34.908Z,60175.97
2023-04-07T05:16:02.696Z,60175.97
2023-04-07T05:18:30.498Z,60175.97
2023-04-07T05:20:58.310Z,60175.97
2023-04-07T05:23:46.104Z,96193.66
2023-04-07T05:26:13.948Z,96191.84
2023-04-07T05:28:41.677Z,96195.88
2023-04-07T05:31:09.637Z,96185.66
2023-04-07T05:33:37.452Z,96190.25
2023-04-07T05:36:05.655Z,96188.19
2023-04-07T05:38:33.716Z,96170.84
2023-04-07T05:41:02.806Z,96187.06
2023-04-07T05:43:30.670Z,96189.00
2023-04-07T05:45:58.886Z,96175.09
2023-04-07T05:48:26.595Z,96184.63
2023-04-07T05:50:54.342Z,96170.03
2023-04-07T05:53:22.883Z,96171.56
2023-04-07T05:55:50.852Z,96168.78
2023-04-07T05:58:20.428Z,96176.16
2023-04-07T06:00:48.155Z,96171.72
2023-04-07T06:03:15.934Z,96172.59
2023-04-07T06:05:43.910Z,96172.44
2023-04-07T06:08:11.772Z,96174.47
2023-04-07T06:10:41.233Z,96169.06
2023-04-07T06:13:09.345Z,96171.41
2023-04-07T06:15:38.534Z,96180.59
2023-04-07T06:18:06.430Z,96177.75
2023-04-07T06:20:34.146Z,96180.09
2023-04-07T06:23:01.865Z,96175.88
2023-04-07T06:25:29.995Z,96180.47
2023-04-07T06:27:57.783Z,96173.91
2023-04-07T06:30:25.662Z,96177.97
2023-04-07T06:32:54.854Z,96159.28
2023-04-07T06:35:22.790Z,96182.63
2023-04-07T06:37:50.958Z,96180.47
2023-04-07T06:40:18.820Z,96179.81
2023-04-07T06:42:46.585Z,96175.63
2023-04-07T06:45:14.661Z,96175.59
2023-04-07T06:47:42.471Z,96167.50
2023-04-07T06:50:12.597Z,96153.50
2023-04-07T06:52:40.335Z,96164.88
2023-04-07T06:55:09.368Z,96159.75
2023-04-07T06:57:37.200Z,96163.34
2023-04-07T07:00:07.910Z,96172.53
2023-04-07T07:02:36.116Z,96175.28
2023-04-07T07:05:04.756Z,96171.34
2023-04-07T07:07:33.964Z,96181.94
2023-04-07T07:10:02.149Z,96179.50
2023-04-07T07:12:29.920Z,96189.78
2023-04-07T07:14:57.702Z,96185.28
2023-04-07T07:17:25.422Z,96186.69
2023-04-07T07:19:53.167Z,96188.88
2023-04-07T07:22:21.018Z,96193.28
2023-04-07T07:24:51.093Z,96188.50
2023-04-07T07:27:18.804Z,96189.81
2023-04-07T07:29:46.548Z,96186.91
2023-04-07T07:32:14.262Z,96188.25
2023-04-07T07:34:42.113Z,96195.53
2023-04-07T07:37:10.216Z,96198.66
2023-04-07T07:39:37.982Z,96193.59
2023-04-07T07:42:07.154Z,96190.78
2023-04-07T07:44:34.985Z,96182.47
2023-04-07T07:47:02.669Z,96201.06
2023-04-07T07:49:30.626Z,96191.06
2023-04-07T07:51:59.756Z,96211.03
2023-04-07T07:54:27.530Z,96213.94
2023-04-07T07:56:55.288Z,96208.63
2023-04-07T07:59:24.612Z,96209.88
2023-04-07T08:01:52.399Z,96203.56
2023-04-07T08:04:20.856Z,96204.41
2023-04-07T08:06:48.577Z,96216.22
2023-04-07T08:09:16.472Z,96212.78
2023-04-07T08:11:44.385Z,96215.69
2023-04-07T08:14:12.296Z,96218.13
2023-04-07T08:16:41.557Z,96220.09
2023-04-07T08:19:09.487Z,96223.44
2023-04-07T08:21:37.296Z,96218.81
2023-04-07T08:24:05.024Z,96236.00
2023-04-07T08:26:32.851Z,96236.00
2023-04-07T08:29:00.693Z,96244.69
2023-04-07T08:31:28.550Z,96236.44
2023-04-07T08:33:59.055Z,96240.03
2023-04-07T08:36:28.157Z,96248.31
2023-04-07T08:38:55.942Z,96242.72
2023-04-07T08:41:31.934Z,96250.28
2023-04-07T08:44:01.762Z,96250.41
2023-04-07T08:46:30.980Z,96260.56
2023-04-07T08:49:01.821Z,96266.19
2023-04-07T08:51:31.845Z,96258.63
2023-04-07T08:54:13.442Z,96269.78
2023-04-07T08:56:42.404Z,96279.50
2023-04-07T08:59:12.404Z,96273.25
2023-04-07T09:01:40.857Z,96264.44
2023-04-07T09:04:11.793Z,96270.38
2023-04-07T09:06:39.615Z,96274.41
2023-04-07T09:09:07.349Z,96280.31
2023-04-07T09:11:37.688Z,96289.59
2023-04-07T09:14:05.500Z,96287.41
2023-04-07T09:16:33.587Z,96281.06
2023-04-07T09:19:01.531Z,96285.56
2023-04-07T09:21:48.902Z,96275.19
2023-04-07T09:24:23.769Z,96279.00
2023-04-07T09:26:51.572Z,96277.59
2023-04-07T09:29:21.154Z,96289.56
2023-04-07T09:31:52.316Z,96287.59
2023-04-07T09:34:27.902Z,96285.44
2023-04-07T09:36:57.817Z,96281.13
2023-04-07T09:39:25.783Z,96290.03
2023-04-07T09:41:54.595Z,96288.25
2023-04-07T09:44:23.433Z,96296.19
2023-04-07T09:46:52.689Z,96296.94
2023-04-07T09:49:21.145Z,96287.41
2023-04-07T09:51:54.866Z,96297.13
2023-04-07T09:54:37.552Z,96299.94
2023-04-07T09:57:08.680Z,96299.72
2023-04-07T09:59:38.421Z,96299.53
2023-04-07T10:02:07.304Z,96298.56
2023-04-07T10:04:35.760Z,96301.41
2023-04-07T10:07:04.436Z,96307.25
2023-04-07T10:09:32.826Z,96314.41
2023-04-07T10:12:02.011Z,96303.19
2023-04-07T10:14:32.179Z,96299.50
2023-04-07T10:17:01.649Z,96305.38
2023-04-07T10:19:33.555Z,96309.75
2023-04-07T10:22:03.243Z,96314.78
2023-04-07T10:24:47.112Z,96319.13
2023-04-07T10:27:22.511Z,96310.38
2023-04-07T10:29:52.609Z,96318.50
2023-04-07T10:32:21.588Z,96322.50
2023-04-07T10:34:59.983Z,96319.13
2023-04-07T10:37:28.331Z,96319.47
2023-04-07T10:40:30.545Z,96319.22
2023-04-07T10:43:01.171Z,96304.94
2023-04-07T10:45:59.912Z,96324.13
2023-04-07T10:48:32.986Z,96314.59
2023-04-07T10:51:18.068Z,96326.72
2023-04-07T10:54:21.082Z,96323.44
2023-04-07T10:57:11.829Z,96337.09
2023-04-07T10:59:46.741Z,96322.75
2023-04-07T11:02:34.752Z,96325.19
2023-04-07T11:05:03.544Z,96326.13
2023-04-07T11:07:57.922Z,96320.34
2023-04-07T11:10:26.409Z,96334.13
2023-04-07T11:13:05.603Z,96338.41
2023-04-07T11:15:38.544Z,96334.44
2023-04-07T11:18:12.638Z,96347.31
2023-04-07T11:20:44.997Z,96350.81
2023-04-07T11:23:14.063Z,96346.13
2023-04-07T11:25:43.676Z,96347.16
2023-04-07T11:28:12.921Z,96344.69
2023-04-07T11:30:47.042Z,96351.97
2023-04-07T11:33:19.336Z,96358.78
2023-04-07T11:35:56.038Z,96361.59
2023-04-07T11:38:27.393Z,96355.41
2023-04-07T11:40:56.564Z,96363.84
2023-04-07T11:43:26.482Z,96357.38
2023-04-07T11:46:10.755Z,96353.72
2023-04-07T11:48:40.629Z,96378.59
2023-04-07T11:51:16.416Z,96364.72
2023-04-07T11:53:44.367Z,96383.91
2023-04-07T11:56:16.850Z,96381.06
2023-04-07T11:58:48.831Z,96392.66
2023-04-07T12:01:18.087Z,96385.97
2023-04-07T12:03:58.915Z,96384.94
2023-04-07T12:06:34.915Z,96386.09
2023-04-07T12:09:03.707Z,96393.31
2023-04-07T12:11:31.879Z,96399.41
2023-04-07T12:13:59.826Z,96392.28
2023-04-07T12:16:29.003Z,96394.31
2023-04-07T12:18:57.513Z,96386.75
2023-04-07T12:21:25.757Z,96393.28
2023-04-07T12:23:53.887Z,96400.09
2023-04-07T12:26:23.358Z,96381.31
2023-04-07T12:28:51.383Z,96380.31
2023-04-07T12:31:19.553Z,96397.22
2023-04-07T12:33:49.031Z,96378.06
2023-04-07T12:36:16.999Z,96379.81
2023-04-07T12:38:45.693Z,96393.16
2023-04-07T12:41:13.430Z,96393.66
2023-04-07T12:43:41.377Z,96392.19
2023-04-07T12:46:09.329Z,96378.22
2023-04-07T12:48:37.271Z,96391.53
2023-04-07T12:51:06.637Z,96391.75
2023-04-07T12:53:34.457Z,96378.81
2023-04-07T12:56:02.482Z,96369.03
2023-04-07T12:58:30.673Z,96387.75
2023-04-07T13:00:58.562Z,96379.50
2023-04-07T13:03:26.955Z,96390.03
2023-04-07T13:05:55.807Z,96375.56
2023-04-07T13:08:24.964Z,96384.28
2023-04-07T13:10:52.724Z,96391.19
2023-04-07T13:13:20.790Z,96380.25
2023-04-07T13:15:48.596Z,96376.34
2023-04-07T13:18:16.410Z,96385.22
2023-04-07T13:20:54.420Z,96367.28
2023-04-07T13:23:42.779Z,96379.78
2023-04-07T13:26:11.797Z,96381.53
2023-04-07T13:28:39.776Z,96374.97
2023-04-07T13:31:07.756Z,96374.16
2023-04-07T13:33:37.729Z,96362.00
2023-04-07T13:36:05.567Z,96371.50
2023-04-07T13:38:34.705Z,96372.09
2023-04-07T13:41:04.025Z,96373.66
2023-04-07T13:43:31.829Z,96373.53
2023-04-07T13:45:59.700Z,96354.41
2023-04-07T13:48:27.542Z,96363.34
2023-04-07T13:50:55.510Z,96358.63
2023-04-07T13:53:23.660Z,96371.25
2023-04-07T13:55:52.995Z,96359.47
2023-04-07T13:58:20.894Z,96362.22
2023-04-07T14:00:48.588Z,96371.25
2023-04-07T14:03:16.583Z,96369.25
2023-04-07T14:05:44.445Z,96356.63
2023-04-07T14:08:12.216Z,96363.47
2023-04-07T14:10:40.675Z,96357.25
2023-04-07T14:13:09.813Z,96351.50
2023-04-07T14:15:37.584Z,96361.41
2023-04-07T14:18:06.462Z,96364.06
2023-04-07T14:20:34.386Z,96362.69
2023-04-07T14:23:02.169Z,96361.25
2023-04-07T14:25:30.114Z,96356.22
2023-04-07T14:27:57.971Z,96363.50
2023-04-07T14:30:27.175Z,96358.56
2023-04-07T14:32:55.136Z,96369.81
2023-04-07T14:35:23.057Z,96365.19
2023-04-07T14:37:52.423Z,96372.00
2023-04-07T14:40:21.238Z,96350.97
2023-04-07T14:42:49.880Z,96364.59
2023-04-07T14:45:18.590Z,96365.91
2023-04-07T14:47:47.852Z,96366.66
2023-04-07T14:50:15.779Z,96362.84
2023-04-07T14:52:43.794Z,96358.19
2023-04-07T14:55:11.596Z,96358.19
2023-04-07T14:57:39.450Z,96361.69
2023-04-07T15:00:08.978Z,96362.84
2023-04-07T15:02:37.262Z,96358.63
2023-04-07T15:05:07.236Z,96348.00
2023-04-07T15:07:35.094Z,96352.59
2023-04-07T15:10:02.999Z,96360.28
2023-04-07T15:12:31.605Z,96364.06
2023-04-07T15:14:59.324Z,96364.81
2023-04-07T15:17:36.656Z,96367.13
2023-04-07T15:20:10.402Z,96371.25
2023-04-07T15:22:38.456Z,96362.09
2023-04-07T15:25:06.777Z,96362.63
2023-04-07T15:27:34.485Z,96363.09
2023-04-07T15:30:02.299Z,96360.56
2023-04-07T15:32:31.704Z,96370.22
2023-04-07T15:34:59.661Z,96376.66
2023-04-07T15:37:29.125Z,96385.00
2023-04-07T15:39:57.314Z,96373.13
2023-04-07T15:42:25.169Z,96382.16
2023-04-07T15:44:53.064Z,96385.41
2023-04-07T15:47:20.867Z,96384.72
2023-04-07T15:49:48.778Z,96394.66
2023-04-07T15:52:16.914Z,96379.41
2023-04-07T15:54:46.121Z,96390.00
2023-04-07T15:57:16.725Z,96375.13
2023-04-07T15:59:44.461Z,96382.81
2023-04-07T16:02:14.124Z,96390.72
2023-04-07T16:04:42.297Z,96388.38
2023-04-07T16:07:10.089Z,96398.72
2023-04-07T16:09:37.919Z,96398.16
2023-04-07T16:12:08.564Z,96400.59
2023-04-07T16:14:36.442Z,96407.19
2023-04-07T16:17:04.396Z,96401.44
2023-04-07T16:19:32.194Z,96410.34
2023-04-07T16:21:59.947Z,96417.69
2023-04-07T16:24:27.786Z,96416.25
2023-04-07T16:26:55.916Z,96417.31
2023-04-07T16:29:25.196Z,96420.81
2023-04-07T16:31:53.067Z,96422.66
2023-04-07T16:34:21.295Z,96387.34
2023-04-07T16:36:50.332Z,96354.88
2023-04-07T16:39:18.774Z,96427.31
2023-04-07T16:41:47.508Z,96367.84
2023-04-07T16:44:15.294Z,96434.78
2023-04-07T16:46:44.487Z,96430.44
2023-04-07T16:49:12.351Z,96429.72
2023-04-07T16:51:40.252Z,96441.22
2023-04-07T16:54:08.057Z,96435.16
2023-04-07T16:56:35.940Z,96450.84
2023-04-07T16:59:04.058Z,96442.94
2023-04-07T17:01:32.056Z,96449.66
2023-04-07T17:04:01.319Z,96448.88
2023-04-07T17:06:29.134Z,96443.03
2023-04-07T17:08:56.923Z,96454.03
2023-04-07T17:11:24.778Z,96449.69
2023-04-07T17:13:56.356Z,96452.66
2023-04-07T17:16:25.626Z,96458.13
2023-04-07T17:18:53.489Z,96460.97
2023-04-07T17:21:22.652Z,96460.00
2023-04-07T17:23:50.816Z,96457.63
2023-04-07T17:26:18.806Z,96468.81
2023-04-07T17:28:47.510Z,96463.78
2023-04-07T17:31:15.498Z,96462.47
2023-04-07T17:33:43.440Z,96473.38
2023-04-07T17:36:11.301Z,96468.09
2023-04-07T17:38:40.441Z,96469.50
2023-04-07T17:41:08.160Z,96467.47
2023-04-07T17:43:36.197Z,96482.75
2023-04-07T17:46:04.703Z,96478.59
2023-04-07T17:48:32.619Z,96481.75
2023-04-07T17:51:00.465Z,96474.66
2023-04-07T17:53:28.348Z,96475.16
2023-04-07T17:55:57.647Z,96488.47
2023-04-07T17:59:03.859Z,96501.28
2023-04-07T18:01:32.006Z,96495.38
2023-04-07T18:04:00.169Z,96506.19
2023-04-07T18:06:28.476Z,96507.34
2023-04-07T18:08:56.602Z,96513.84
2023-04-07T18:11:24.317Z,96512.84
2023-04-07T18:13:52.886Z,96517.44
2023-04-07T18:16:22.594Z,96521.00
2023-04-07T18:18:50.535Z,96525.00
2023-04-07T18:21:18.371Z,96525.00
2023-04-07T18:23:46.488Z,96509.75
2023-04-07T18:26:14.846Z,96518.34
2023-04-07T18:28:42.747Z,96528.31
2023-04-07T18:31:11.010Z,96534.91
2023-04-07T18:33:40.416Z,96534.09
2023-04-07T18:36:09.086Z,96528.41
2023-04-07T18:38:38.157Z,96544.75
2023-04-07T18:41:11.174Z,96537.81
2023-04-07T18:43:39.387Z,96540.88
2023-04-07T18:46:07.339Z,96545.78
2023-04-07T18:48:35.146Z,96561.53
2023-04-07T18:51:04.596Z,96562.34
2023-04-07T18:53:32.693Z,96566.03
2023-04-07T18:56:02.725Z,96552.53
2023-04-07T18:58:30.678Z,96572.97
2023-04-07T19:00:58.756Z,96574.22
2023-04-07T19:03:27.230Z,96572.56
2023-04-07T19:05:55.517Z,96562.19
2023-04-07T19:08:24.613Z,96549.91
2023-04-07T19:10:53.475Z,96585.84
2023-04-07T19:13:21.283Z,96575.00
2023-04-07T19:15:49.445Z,96588.31
2023-04-07T19:18:17.727Z,96575.84
2023-04-07T19:20:46.325Z,96596.28
2023-04-07T19:23:14.447Z,96599.75
2023-04-07T19:25:45.772Z,96600.34
2023-04-07T19:28:14.065Z,96595.47
2023-04-07T19:30:41.914Z,96603.63
2023-04-07T19:33:09.698Z,96597.09
2023-04-07T19:35:39.052Z,96589.72
2023-04-07T19:38:07.250Z,96604.03
2023-04-07T19:40:35.162Z,96608.09
2023-04-07T19:43:04.613Z,96607.72
2023-04-07T19:45:32.368Z,96616.69
2023-04-07T19:48:00.364Z,96610.75
2023-04-07T19:50:28.482Z,96604.03
2023-04-07T19:52:56.331Z,96615.47
2023-04-07T19:55:24.126Z,96619.16
2023-04-07T19:57:51.974Z,96615.28
2023-04-07T20:00:23.603Z,96569.47
2023-04-07T20:02:51.594Z,96624.47
2023-04-07T20:05:19.751Z,96605.66
2023-04-07T20:07:47.732Z,96630.81
2023-04-07T20:10:17.426Z,96629.78
2023-04-07T20:12:45.570Z,96636.28
2023-04-07T20:15:13.517Z,96639.16
2023-04-07T20:17:42.835Z,96634.06
2023-04-07T20:20:14.373Z,96631.41
2023-04-07T20:22:42.213Z,96639.16
2023-04-07T20:25:12.434Z,96636.31
2023-04-07T20:27:40.168Z,96637.13
2023-04-07T20:30:09.393Z,96648.38
2023-04-07T20:32:37.155Z,96638.75
2023-04-07T20:35:07.147Z,96647.56
2023-04-07T20:37:34.867Z,96641.22
2023-04-07T20:40:04.287Z,96641.16
2023-04-07T20:42:32.069Z,96642.78
2023-04-07T20:45:03.728Z,96622.94
2023-04-07T20:47:32.299Z,96641.31
2023-04-07T20:50:00.426Z,96633.69
2023-04-07T20:52:29.928Z,96636.59
2023-04-07T20:54:58.361Z,96637.72
2023-04-07T20:57:26.757Z,96641.00
2023-04-07T20:59:54.533Z,96642.34
2023-04-07T21:02:22.463Z,96649.44
2023-04-07T21:04:50.220Z,96648.56
2023-04-07T21:07:18.063Z,96651.69
2023-04-07T21:09:47.491Z,96653.31
2023-04-07T21:12:15.813Z,96658.34
2023-04-07T21:14:43.797Z,96663.78
2023-04-07T21:17:11.536Z,96656.25
2023-04-07T21:19:39.258Z,96668.09
2023-04-07T21:22:06.974Z,96663.47
2023-04-07T21:24:34.924Z,96651.84
2023-04-07T21:27:04.055Z,96660.69
2023-04-07T21:29:32.494Z,96662.53
2023-04-07T21:32:00.396Z,96640.56
2023-04-07T21:34:28.535Z,96665.31
2023-04-07T21:36:56.251Z,96665.41
2023-04-07T21:39:23.935Z,96665.44
2023-04-07T21:41:52.732Z,96665.00
2023-04-07T21:44:22.593Z,96653.59
2023-04-07T21:46:50.601Z,96664.81
2023-04-07T21:49:22.381Z,96661.34
2023-04-07T21:51:50.339Z,96659.31
2023-04-07T21:54:18.285Z,96659.56
2023-04-07T21:56:48.987Z,96662.22
2023-04-07T21:59:17.830Z,96659.75
2023-04-07T22:01:47.489Z,96656.50
2023-04-07T22:04:15.716Z,96652.59
2023-04-07T22:06:44.529Z,96655.34
2023-04-07T22:09:12.416Z,96657.38
2023-04-07T22:11:40.298Z,96656.91
2023-04-07T22:14:08.049Z,96656.38
2023-04-07T22:16:38.702Z,96641.44
2023-04-07T22:19:07.893Z,96659.84
2023-04-07T22:21:35.944Z,96660.28
2023-04-07T22:24:03.653Z,96665.59
2023-04-07T22:26:31.688Z,96658.22
2023-04-07T22:28:59.555Z,96656.16
2023-04-07T22:31:27.648Z,96656.38
2023-04-07T22:33:55.363Z,96659.03
2023-04-07T22:36:24.603Z,96653.72
2023-04-07T22:38:52.336Z,96661.69
2023-04-07T22:41:21.458Z,96658.63
2023-04-07T22:43:49.248Z,96670.09
2023-04-07T22:46:18.459Z,96664.81
2023-04-07T22:48:46.706Z,96673.38
2023-04-07T22:51:14.716Z,96666.41
2023-04-07T22:53:43.912Z,96668.50
2023-04-07T22:56:11.745Z,96661.31
2023-04-07T22:58:39.589Z,96669.13
2023-04-07T23:01:08.123Z,96673.34
2023-04-07T23:03:36.271Z,96668.47
2023-04-07T23:06:04.128Z,96674.03
2023-04-07T23:08:32.194Z,96673.00
2023-04-07T23:11:01.476Z,96669.63
2023-04-07T23:13:29.236Z,96675.28
2023-04-07T23:15:58.076Z,96672.16
2023-04-07T23:18:25.949Z,96673.16
2023-04-07T23:20:53.760Z,96676.34
2023-04-07T23:23:21.695Z,96664.22
2023-04-07T23:25:49.884Z,96681.97
2023-04-07T23:28:19.011Z,96682.13
2023-04-07T23:30:46.890Z,96667.84
2023-04-07T23:33:14.879Z,96680.13
2023-04-07T23:35:42.742Z,96682.03
2023-04-07T23:38:10.939Z,96674.25
2023-04-07T23:40:38.733Z,96684.91
2023-04-07T23:43:06.584Z,96685.53
2023-04-07T23:45:36.577Z,96683.09
2023-04-07T23:48:04.554Z,96685.09
2023-04-07T23:50:32.691Z,96693.22
2023-04-07T23:53:00.885Z,96686.31
2023-04-07T23:55:28.568Z,96681.72
2023-04-07T23:57:56.295Z,96682.34
